createdAt,value
2023-04-08T00:02:16.048Z,11.26
2023-04-08T00:04:45.392Z,11.20
2023-04-08T00:07:13.426Z,11.20
2023-04-08T00:09:41.378Z,11.19
2023-04-08T00:12:09.473Z,11.19
2023-04-08T00:14:38.378Z,11.17
2023-04-08T00:17:06.569Z,11.16
2023-04-08T00:19:36.201Z,11.12
2023-04-08T00:22:06.105Z,11.14
2023-04-08T00:24:34.037Z,11.13
2023-04-08T00:27:02.856Z,11.12
2023-04-08T00:29:30.847Z,11.13
2023-04-08T00:31:58.773Z,11.13
2023-04-08T00:34:27.087Z,11.14
2023-04-08T00:36:55.048Z,11.15
2023-04-08T00:39:24.289Z,11.16
2023-04-08T00:41:52.137Z,11.16
2023-04-08T00:44:20.089Z,11.15
2023-04-08T00:46:48.655Z,11.16
2023-04-08T00:49:17.606Z,11.17
2023-04-08T00:51:45.566Z,11.16
2023-04-08T00:54:13.593Z,11.16
2023-04-08T00:56:42.863Z,11.15
2023-04-08T00:59:10.791Z,11.13
2023-04-08T01:01:45.631Z,11.11
2023-04-08T01:04:17.660Z,10.98
2023-04-08T01:06:48.609Z,11.00
2023-04-08T01:09:16.488Z,10.95
2023-04-08T01:11:45.865Z,10.71
2023-04-08T01:14:16.211Z,10.92
2023-04-08T01:16:44.090Z,10.89
2023-04-08T01:19:12.026Z,10.83
2023-04-08T01:21:39.977Z,10.81
2023-04-08T01:24:10.063Z,10.81
2023-04-08T01:26:39.327Z,10.81
2023-04-08T01:29:07.189Z,10.76
2023-04-08T01:31:35.073Z,10.72
2023-04-08T01:34:04.660Z,10.74
2023-04-08T01:36:33.308Z,10.68
2023-04-08T01:39:01.676Z,10.70
2023-04-08T01:41:29.686Z,10.68
2023-04-08T01:43:58.919Z,10.67
2023-04-08T01:46:26.827Z,10.65
2023-04-08T01:48:54.820Z,10.66
2023-04-08T01:51:23.627Z,10.55
2023-04-08T01:53:51.689Z,10.68
2023-04-08T01:56:19.645Z,10.68
2023-04-08T01:58:48.834Z,10.63
2023-04-08T02:01:19.203Z,10.62
2023-04-08T02:03:47.209Z,10.58
2023-04-08T02:06:15.323Z,10.55
2023-04-08T02:08:43.181Z,10.51
2023-04-08T02:11:11.398Z,10.25
2023-04-08T02:13:39.264Z,10.39
2023-04-08T02:16:12.113Z,10.31
2023-04-08T02:18:41.403Z,10.19
2023-04-08T02:21:11.417Z,10.18
2023-04-08T02:23:39.917Z,10.16
2023-04-08T02:26:09.412Z,10.17
2023-04-08T02:28:37.402Z,10.13
2023-04-08T02:31:05.815Z,10.13
2023-04-08T02:33:33.702Z,10.12
2023-04-08T02:36:03.048Z,10.12
2023-04-08T02:38:31.022Z,10.11
2023-04-08T02:40:58.938Z,10.10
2023-04-08T02:43:32.372Z,10.08
2023-04-08T02:46:00.826Z,10.05
2023-04-08T02:48:28.732Z,10.01
2023-04-08T02:50:57.315Z,10.02
2023-04-08T02:53:26.566Z,10.04
2023-04-08T02:55:54.484Z,10.05
2023-04-08T02:58:22.363Z,10.05
2023-04-08T03:00:50.303Z,10.06
2023-04-08T03:03:18.215Z,10.08
2023-04-08T03:05:46.129Z,10.09
2023-04-08T03:08:14.002Z,10.08
2023-04-08T03:10:43.564Z,10.09
2023-04-08T03:13:11.475Z,10.11
2023-04-08T03:15:39.487Z,10.10
2023-04-08T03:18:07.409Z,10.13
2023-04-08T03:20:35.633Z,10.08
2023-04-08T03:23:03.536Z,10.09
2023-04-08T03:25:31.783Z,10.10
2023-04-08T03:28:01.049Z,10.14
2023-04-08T03:30:29.188Z,10.17
2023-04-08T03:32:57.112Z,10.22
2023-04-08T03:35:25.488Z,10.20
2023-04-08T03:37:54.597Z,10.37
2023-04-08T03:40:22.498Z,10.42
2023-04-08T03:42:50.376Z,10.46
2023-04-08T03:45:20.493Z,10.41
2023-04-08T03:47:48.391Z,10.49
2023-04-08T03:50:16.314Z,10.48
2023-04-08T03:52:44.237Z,10.47
2023-04-08T03:55:12.172Z,10.46
2023-04-08T03:57:40.067Z,10.46
2023-04-08T04:00:09.349Z,10.47
2023-04-08T04:02:38.775Z,10.38
2023-04-08T04:05:07.201Z,10.50
2023-04-08T04:07:35.118Z,10.52
2023-04-08T04:10:03.125Z,10.48
2023-04-08T04:12:31.023Z,10.45
2023-04-08T04:14:58.977Z,10.53
2023-04-08T04:17:27.156Z,10.55
2023-04-08T04:19:56.490Z,10.54
2023-04-08T04:22:24.471Z,10.58
2023-04-08T04:24:52.352Z,10.60
2023-04-08T04:27:20.247Z,10.64
2023-04-08T04:29:48.168Z,10.63
2023-04-08T04:32:16.231Z,10.67
2023-04-08T04:34:44.752Z,10.72
2023-04-08T04:37:14.074Z,10.75
2023-04-08T04:39:42.014Z,10.77
2023-04-08T04:42:09.934Z,10.79
2023-04-08T04:44:37.848Z,10.80
2023-04-08T04:47:05.980Z,10.81
2023-04-08T04:49:33.870Z,10.80
2023-04-08T04:52:01.780Z,10.79
2023-04-08T04:54:31.141Z,10.81
2023-04-08T04:56:59.015Z,10.81
2023-04-08T04:59:26.907Z,10.83
2023-04-08T05:01:57.778Z,10.84
2023-04-08T05:04:25.923Z,10.82
2023-04-08T05:06:53.829Z,10.82
2023-04-08T05:09:21.808Z,10.78
2023-04-08T05:11:51.181Z,10.77
2023-04-08T05:14:19.163Z,10.78
2023-04-08T05:16:46.997Z,10.79
2023-04-08T05:19:17.845Z,10.84
2023-04-08T05:21:45.800Z,10.87
2023-04-08T05:24:13.687Z,10.87
2023-04-08T05:26:41.671Z,10.86
2023-04-08T05:29:12.126Z,10.90
2023-04-08T05:31:40.100Z,10.95
2023-04-08T05:34:07.996Z,10.99
2023-04-08T05:36:36.300Z,11.07
2023-04-08T05:39:04.467Z,11.12
2023-04-08T05:41:32.426Z,11.18
2023-04-08T05:44:01.004Z,11.21
2023-04-08T05:46:30.557Z,11.14
2023-04-08T05:48:58.426Z,11.22
2023-04-08T05:51:26.353Z,11.26
2023-04-08T05:53:54.328Z,11.27
2023-04-08T05:56:22.534Z,11.27
2023-04-08T05:58:50.907Z,11.31
2023-04-08T06:01:19.000Z,11.36
2023-04-08T06:03:48.439Z,11.38
2023-04-08T06:06:16.512Z,11.36
2023-04-08T06:08:44.430Z,11.44
2023-04-08T06:11:12.319Z,11.48
2023-04-08T06:13:40.426Z,11.52
2023-04-08T06:16:12.372Z,11.56
2023-04-08T06:18:40.420Z,11.61
2023-04-08T06:21:16.999Z,11.65
2023-04-08T06:23:44.947Z,11.74
2023-04-08T06:26:13.540Z,11.78
2023-04-08T06:28:41.444Z,11.84
2023-04-08T06:31:09.341Z,11.90
2023-04-08T06:33:37.230Z,11.94
2023-04-08T06:36:05.451Z,11.99
2023-04-08T06:38:34.811Z,12.03
2023-04-08T06:41:06.015Z,12.11
2023-04-08T06:43:34.204Z,12.16
2023-04-08T06:46:02.434Z,12.23
2023-04-08T06:48:30.868Z,12.29
2023-04-08T06:50:58.948Z,12.34
2023-04-08T06:53:27.016Z,12.40
2023-04-08T06:55:56.623Z,12.44
2023-04-08T06:58:24.566Z,12.51
2023-04-08T07:00:53.403Z,12.58
2023-04-08T07:03:22.597Z,12.63
2023-04-08T07:05:50.717Z,12.64
2023-04-08T07:08:20.126Z,12.72
2023-04-08T07:10:48.319Z,12.87
2023-04-08T07:13:17.624Z,12.91
2023-04-08T07:15:45.595Z,12.99
2023-04-08T07:18:13.979Z,13.00
2023-04-08T07:20:42.187Z,13.12
2023-04-08T07:23:10.857Z,13.18
2023-04-08T07:25:38.813Z,13.27
2023-04-08T07:28:06.908Z,13.34
2023-04-08T07:30:36.206Z,13.44
2023-04-08T07:33:04.153Z,13.51
2023-04-08T07:35:32.165Z,13.57
2023-04-08T07:38:00.160Z,13.60
2023-04-08T07:40:28.095Z,13.72
2023-04-08T07:42:56.064Z,13.84
2023-04-08T07:45:23.961Z,13.93
2023-04-08T07:47:53.317Z,14.03
2023-04-08T07:50:21.514Z,14.09
2023-04-08T07:52:49.445Z,14.16
2023-04-08T07:55:17.508Z,14.21
2023-04-08T07:57:46.150Z,14.27
2023-04-08T08:00:20.912Z,14.33
2023-04-08T08:02:49.317Z,14.47
2023-04-08T08:05:19.020Z,14.60
2023-04-08T08:07:47.022Z,14.66
2023-04-08T08:10:15.270Z,14.73
2023-04-08T08:12:43.226Z,14.85
2023-04-08T08:15:12.238Z,14.92
2023-04-08T08:17:40.576Z,15.01
2023-04-08T08:20:10.500Z,15.08
2023-04-08T08:22:50.907Z,15.18
2023-04-08T08:25:26.252Z,15.26
2023-04-08T08:27:55.504Z,15.30
2023-04-08T08:30:23.654Z,15.36
2023-04-08T08:32:52.302Z,15.37
2023-04-08T08:35:20.491Z,15.38
2023-04-08T08:37:50.055Z,15.35
2023-04-08T08:40:18.152Z,15.39
2023-04-08T08:42:51.586Z,15.46
2023-04-08T08:45:20.337Z,15.53
2023-04-08T08:47:50.846Z,15.60
2023-04-08T08:50:19.501Z,15.69
2023-04-08T08:52:52.055Z,15.72
2023-04-08T08:55:36.291Z,15.77
2023-04-08T08:58:08.703Z,15.82
2023-04-08T09:00:38.306Z,15.82
2023-04-08T09:03:17.197Z,15.88
2023-04-08T09:05:52.280Z,15.95
2023-04-08T09:08:32.146Z,16.01
2023-04-08T09:11:13.549Z,16.11
2023-04-08T09:13:41.528Z,16.18
2023-04-08T09:16:10.557Z,16.24
2023-04-08T09:18:38.871Z,16.27
2023-04-08T09:21:07.945Z,16.29
2023-04-08T09:23:44.421Z,16.43
2023-04-08T09:26:13.595Z,16.48
2023-04-08T09:28:42.584Z,16.58
2023-04-08T09:31:23.069Z,16.64
2023-04-08T09:33:51.484Z,16.68
2023-04-08T09:36:20.058Z,16.80
2023-04-08T09:38:50.630Z,16.93
2023-04-08T09:41:18.983Z,17.13
2023-04-08T09:43:50.848Z,17.25
2023-04-08T09:46:23.723Z,17.35
2023-04-08T09:48:55.540Z,17.45
2023-04-08T09:51:24.449Z,17.55
2023-04-08T09:53:59.078Z,17.63
2023-04-08T09:56:27.567Z,17.71
2023-04-08T09:59:00.512Z,17.67
2023-04-08T10:01:30.819Z,17.80
2023-04-08T10:03:59.617Z,17.84
2023-04-08T10:06:32.044Z,17.86
2023-04-08T10:09:02.172Z,17.95
2023-04-08T10:11:30.087Z,18.10
2023-04-08T10:13:58.020Z,18.20
2023-04-08T10:16:27.574Z,18.26
2023-04-08T10:18:57.021Z,18.39
2023-04-08T10:21:38.710Z,18.51
2023-04-08T10:24:11.171Z,18.73
2023-04-08T10:26:42.605Z,18.89
2023-04-08T10:29:35.690Z,18.95
2023-04-08T10:32:03.627Z,18.97
2023-04-08T10:34:31.551Z,19.10
2023-04-08T10:37:03.932Z,19.14
2023-04-08T10:39:33.579Z,19.29
2023-04-08T10:44:31.413Z,19.45
2023-04-08T10:47:00.282Z,19.56
2023-04-08T10:49:34.742Z,19.69
2023-04-08T10:52:02.705Z,19.83
2023-04-08T10:54:31.402Z,19.93
2023-04-08T10:57:00.868Z,20.10
2023-04-08T10:59:29.273Z,20.25
2023-04-08T11:01:58.590Z,20.35
2023-04-08T11:04:27.441Z,20.52
2023-04-08T11:06:55.589Z,20.50
2023-04-08T11:09:23.691Z,20.42
2023-04-08T11:11:52.243Z,20.43
2023-04-08T11:14:22.546Z,20.55
2023-04-08T11:16:50.548Z,20.58
2023-04-08T11:19:18.803Z,20.63
2023-04-08T11:21:46.879Z,20.56
2023-04-08T11:24:16.472Z,20.45
2023-04-08T11:26:44.582Z,20.46
2023-04-08T11:29:14.353Z,20.54
2023-04-08T11:31:44.307Z,20.67
2023-04-08T11:34:12.634Z,20.80
2023-04-08T11:36:41.989Z,20.89
2023-04-08T11:39:10.593Z,20.94
2023-04-08T11:41:39.494Z,21.13
2023-04-08T11:44:07.866Z,21.29
2023-04-08T11:46:36.339Z,21.46
2023-04-08T11:49:07.904Z,21.60
2023-04-08T11:51:36.226Z,21.84
2023-04-08T11:54:06.222Z,22.11
2023-04-08T11:56:45.697Z,22.42
2023-04-08T11:59:13.626Z,22.64
2023-04-08T12:01:41.569Z,22.84
2023-04-08T12:04:12.412Z,22.95
2023-04-08T12:06:43.573Z,22.97
2023-04-08T12:09:11.591Z,23.08
2023-04-08T12:11:39.516Z,23.12
2023-04-08T12:14:07.542Z,23.15
2023-04-08T12:16:35.544Z,23.37
2023-04-08T12:19:03.571Z,23.59
2023-04-08T12:21:33.990Z,23.68
2023-04-08T12:24:02.025Z,23.64
2023-04-08T12:26:29.925Z,23.62
2023-04-08T12:28:57.897Z,23.54
2023-04-08T12:31:27.783Z,23.51
2023-04-08T12:33:55.739Z,23.47
2023-04-08T12:36:23.668Z,23.47
2023-04-08T12:38:53.129Z,23.44
2023-04-08T12:41:21.810Z,23.55
2023-04-08T12:43:49.711Z,23.48
2023-04-08T12:46:17.794Z,23.41
2023-04-08T12:48:47.540Z,23.40
2023-04-08T12:51:15.866Z,23.50
2023-04-08T12:53:44.075Z,23.55
2023-04-08T12:56:13.377Z,23.60
2023-04-08T12:58:41.423Z,23.62
2023-04-08T13:01:09.382Z,23.61
2023-04-08T13:03:37.506Z,23.54
2023-04-08T13:06:05.473Z,23.45
2023-04-08T13:08:33.414Z,23.33
2023-04-08T13:11:01.341Z,23.20
2023-04-08T13:13:30.643Z,23.14
2023-04-08T13:15:58.962Z,23.02
2023-04-08T13:18:27.230Z,23.03
2023-04-08T13:20:58.261Z,23.06
2023-04-08T13:23:26.589Z,23.10
2023-04-08T13:25:54.549Z,23.17
2023-04-08T13:28:22.421Z,23.09
2023-04-08T13:30:51.860Z,23.06
2023-04-08T13:33:19.787Z,23.16
2023-04-08T13:35:47.760Z,23.19
2023-04-08T13:38:15.685Z,23.23
2023-04-08T13:40:43.827Z,23.18
2023-04-08T13:43:11.744Z,23.18
2023-04-08T13:45:40.692Z,23.14
2023-04-08T13:48:10.093Z,23.02
2023-04-08T13:50:38.952Z,22.96
2023-04-08T13:53:06.876Z,22.95
2023-04-08T13:55:34.773Z,22.84
2023-04-08T13:58:06.469Z,22.82
2023-04-08T14:00:36.684Z,22.82
2023-04-08T14:03:04.875Z,22.79
2023-04-08T14:05:34.275Z,22.74
2023-04-08T14:08:02.154Z,22.67
2023-04-08T14:10:30.532Z,22.70
2023-04-08T14:12:58.482Z,22.78
2023-04-08T14:15:26.341Z,22.75
2023-04-08T14:17:54.261Z,22.91
2023-04-08T14:20:22.419Z,23.09
2023-04-08T14:22:51.925Z,23.16
2023-04-08T14:25:19.882Z,23.09
2023-04-08T14:27:57.346Z,22.83
2023-04-08T14:30:26.887Z,22.52
2023-04-08T14:32:55.317Z,22.32
2023-04-08T14:35:23.282Z,22.21
2023-04-08T14:37:52.568Z,22.14
2023-04-08T14:40:20.448Z,22.11
2023-04-08T14:42:49.867Z,22.19
2023-04-08T14:45:18.102Z,22.14
2023-04-08T14:47:46.090Z,22.19
2023-04-08T14:50:14.081Z,22.14
2023-04-08T14:52:42.173Z,22.23
2023-04-08T14:55:11.672Z,22.28
2023-04-08T14:57:39.559Z,22.37
2023-04-08T15:00:08.996Z,22.55
2023-04-08T15:02:36.995Z,22.74
2023-04-08T15:05:05.566Z,22.82
2023-04-08T15:07:33.482Z,23.05
2023-04-08T15:10:01.978Z,23.37
2023-04-08T15:12:33.046Z,23.62
2023-04-08T15:15:00.978Z,23.75
2023-04-08T15:17:28.982Z,23.74
2023-04-08T15:19:57.296Z,23.70
2023-04-08T15:22:25.282Z,23.72
2023-04-08T15:24:53.270Z,23.69
2023-04-08T15:27:21.600Z,23.62
2023-04-08T15:29:50.842Z,23.42
2023-04-08T15:32:18.881Z,23.20
2023-04-08T15:34:47.472Z,23.06
2023-04-08T15:37:15.542Z,22.87
2023-04-08T15:39:43.470Z,22.72
2023-04-08T15:42:11.329Z,22.60
2023-04-08T15:44:39.262Z,22.42
2023-04-08T15:47:08.997Z,22.24
2023-04-08T15:49:36.940Z,22.15
2023-04-08T15:52:05.010Z,22.11
2023-04-08T15:54:34.517Z,22.05
2023-04-08T15:57:03.505Z,22.03
2023-04-08T15:59:31.504Z,21.95
2023-04-08T16:01:59.490Z,21.89
2023-04-08T16:04:29.041Z,21.82
2023-04-08T16:06:57.017Z,21.67
2023-04-08T16:09:26.808Z,21.54
2023-04-08T16:11:54.813Z,21.46
2023-04-08T16:14:22.760Z,21.39
2023-04-08T16:16:51.335Z,21.42
2023-04-08T16:19:19.283Z,21.44
2023-04-08T16:21:48.710Z,21.44
2023-04-08T16:24:16.766Z,21.36
2023-04-08T16:26:44.831Z,21.22
2023-04-08T16:29:12.764Z,21.07
2023-04-08T16:31:40.978Z,20.96
2023-04-08T16:34:09.125Z,20.95
2023-04-08T16:36:37.136Z,20.98
2023-04-08T16:39:06.452Z,21.07
2023-04-08T16:41:34.572Z,21.00
2023-04-08T16:44:02.533Z,21.08
2023-04-08T16:46:30.537Z,21.04
2023-04-08T16:48:58.944Z,20.99
2023-04-08T16:51:30.050Z,20.94
2023-04-08T16:54:00.855Z,20.86
2023-04-08T16:56:30.485Z,20.68
2023-04-08T16:58:58.672Z,20.51
2023-04-08T17:01:27.082Z,20.30
2023-04-08T17:03:55.368Z,20.13
2023-04-08T17:06:23.965Z,20.04
2023-04-08T17:08:52.621Z,20.08
2023-04-08T17:11:21.948Z,20.08
2023-04-08T17:13:51.637Z,20.13
2023-04-08T17:16:19.682Z,20.16
2023-04-08T17:18:47.834Z,20.13
2023-04-08T17:21:16.015Z,20.08
2023-04-08T17:23:43.986Z,19.98
2023-04-08T17:26:12.893Z,19.83
2023-04-08T17:28:40.806Z,19.68
2023-04-08T17:31:10.646Z,19.59
2023-04-08T17:33:38.649Z,19.46
2023-04-08T17:36:07.960Z,19.34
2023-04-08T17:38:39.835Z,19.19
2023-04-08T17:41:10.063Z,19.03
2023-04-08T17:43:38.087Z,18.89
2023-04-08T17:46:06.268Z,18.74
2023-04-08T17:48:35.563Z,18.60
2023-04-08T17:51:03.729Z,18.46
2023-04-08T17:53:32.112Z,18.34
2023-04-08T17:56:00.133Z,18.21
2023-04-08T17:58:28.411Z,18.03
2023-04-08T18:00:56.358Z,17.89
2023-04-08T18:03:24.441Z,17.80
2023-04-08T18:05:55.177Z,17.65
2023-04-08T18:08:23.142Z,17.52
2023-04-08T18:10:51.092Z,17.43
2023-04-08T18:13:18.976Z,17.31
2023-04-08T18:15:46.919Z,17.20
2023-04-08T18:18:19.728Z,17.12
2023-04-08T18:20:47.676Z,17.04
2023-04-08T18:23:17.216Z,17.01
2023-04-08T18:25:47.299Z,16.93
2023-04-08T18:28:15.661Z,16.78
2023-04-08T18:30:43.813Z,16.73
2023-04-08T18:33:11.817Z,16.78
2023-04-08T18:35:39.781Z,16.71
2023-04-08T18:38:07.854Z,16.64
2023-04-08T18:40:37.706Z,16.56
2023-04-08T18:43:06.079Z,16.44
2023-04-08T18:45:34.111Z,16.33
2023-04-08T18:48:02.171Z,16.24
2023-04-08T18:50:30.380Z,16.12
2023-04-08T18:52:58.335Z,16.06
2023-04-08T18:55:26.398Z,15.95
2023-04-08T18:57:55.796Z,15.89
2023-04-08T19:00:23.894Z,15.78
2023-04-08T19:02:52.057Z,15.62
2023-04-08T19:05:20.325Z,15.64
2023-04-08T19:07:48.677Z,15.59
2023-04-08T19:10:16.591Z,15.54
2023-04-08T19:12:44.761Z,15.49
2023-04-08T19:15:14.789Z,15.39
2023-04-08T19:17:42.725Z,15.41
2023-04-08T19:20:11.584Z,15.36
2023-04-08T19:22:40.750Z,15.31
2023-04-08T19:25:09.259Z,15.26
2023-04-08T19:27:37.671Z,15.24
2023-04-08T19:30:06.807Z,15.18
2023-04-08T19:32:36.351Z,15.14
2023-04-08T19:35:04.411Z,15.16
2023-04-08T19:37:32.294Z,15.15
2023-04-08T19:40:00.270Z,15.11
2023-04-08T19:42:28.353Z,15.08
2023-04-08T19:44:56.303Z,15.05
2023-04-08T19:47:24.265Z,15.03
2023-04-08T19:49:53.603Z,15.00
2023-04-08T19:52:21.565Z,14.96
2023-04-08T19:54:51.269Z,14.95
2023-04-08T19:57:19.373Z,14.93
2023-04-08T19:59:47.976Z,14.92
2023-04-08T20:02:16.007Z,14.87
2023-04-08T20:04:44.070Z,14.85
2023-04-08T20:07:13.385Z,14.82
2023-04-08T20:09:41.311Z,14.83
2023-04-08T20:12:09.193Z,14.77
2023-04-08T20:14:40.449Z,14.74
2023-04-08T20:17:08.398Z,14.70
2023-04-08T20:19:36.421Z,14.63
2023-04-08T20:22:04.354Z,14.61
2023-04-08T20:24:34.077Z,14.55
2023-04-08T20:27:02.024Z,14.54
2023-04-08T20:29:29.901Z,14.53
2023-04-08T20:31:57.916Z,14.49
2023-04-08T20:34:26.195Z,14.48
2023-04-08T20:36:54.175Z,14.42
2023-04-08T20:39:29.174Z,14.40
2023-04-08T20:41:59.460Z,14.41
2023-04-08T20:44:27.467Z,14.39
2023-04-08T20:46:55.825Z,14.36
2023-04-08T20:49:24.254Z,14.33
2023-04-08T20:51:52.149Z,14.24
2023-04-08T20:54:20.164Z,14.24
2023-04-08T20:56:48.058Z,14.22
2023-04-08T20:59:17.347Z,14.19
2023-04-08T21:01:45.724Z,14.17
2023-04-08T21:04:13.734Z,14.12
2023-04-08T21:06:42.171Z,14.11
2023-04-08T21:09:11.395Z,14.07
2023-04-08T21:11:39.510Z,14.05
2023-04-08T21:14:07.408Z,14.03
2023-04-08T21:16:36.900Z,14.02
2023-04-08T21:19:04.958Z,14.01
2023-04-08T21:21:32.879Z,14.01
2023-04-08T21:24:01.694Z,13.99
2023-04-08T21:26:29.638Z,13.94
2023-04-08T21:28:57.733Z,13.92
2023-04-08T21:31:26.883Z,13.92
2023-04-08T21:33:56.150Z,13.91
2023-04-08T21:36:24.000Z,13.91
2023-04-08T21:38:52.039Z,13.86
2023-04-08T21:41:21.383Z,13.87
2023-04-08T21:43:50.643Z,13.84
2023-04-08T21:46:18.628Z,13.82
2023-04-08T21:48:46.573Z,13.80
2023-04-08T21:51:17.562Z,13.80
2023-04-08T21:53:45.604Z,13.79
2023-04-08T21:56:14.097Z,13.75
2023-04-08T21:58:42.226Z,13.75
2023-04-08T22:01:10.188Z,13.74
2023-04-08T22:03:38.309Z,13.73
2023-04-08T22:06:10.959Z,13.74
2023-04-08T22:08:42.415Z,13.69
2023-04-08T22:11:10.300Z,13.70
2023-04-08T22:13:38.283Z,13.66
2023-04-08T22:16:08.139Z,13.67
2023-04-08T22:18:36.083Z,13.69
2023-04-08T22:21:04.083Z,13.67
2023-04-08T22:23:31.939Z,13.66
2023-04-08T22:26:01.188Z,13.65
2023-04-08T22:28:29.210Z,13.65
2023-04-08T22:30:57.123Z,13.63
2023-04-08T22:33:25.688Z,13.61
2023-04-08T22:35:53.708Z,13.61
2023-04-08T22:38:21.627Z,13.61
2023-04-08T22:40:49.518Z,13.61
2023-04-08T22:43:18.790Z,13.57
2023-04-08T22:45:46.906Z,13.60
2023-04-08T22:48:14.852Z,13.56
2023-04-08T22:50:42.741Z,13.55
2023-04-08T22:53:10.655Z,13.53
2023-04-08T22:55:38.576Z,13.49
2023-04-08T22:58:06.594Z,13.53
2023-04-08T23:00:35.838Z,13.52
2023-04-08T23:03:04.853Z,13.51
2023-04-08T23:05:33.482Z,13.52
2023-04-08T23:08:01.550Z,13.53
2023-04-08T23:10:29.423Z,13.54
2023-04-08T23:12:57.367Z,13.53
2023-04-08T23:15:25.262Z,13.49
2023-04-08T23:17:54.510Z,13.50
2023-04-08T23:20:22.522Z,13.48
2023-04-08T23:22:50.692Z,13.49
2023-04-08T23:25:18.743Z,13.50
2023-04-08T23:27:46.829Z,13.48
2023-04-08T23:30:14.963Z,13.45
2023-04-08T23:32:43.019Z,13.44
2023-04-08T23:35:12.456Z,13.40
2023-04-08T23:37:40.449Z,13.39
2023-04-08T23:40:09.865Z,13.37
2023-04-08T23:42:37.860Z,13.38
2023-04-08T23:45:06.820Z,13.35
2023-04-08T23:47:34.758Z,13.32
2023-04-08T23:50:02.739Z,13.23
2023-04-08T23:52:31.987Z,13.29
2023-04-08T23:54:59.895Z,13.23
2023-04-08T23:57:27.799Z,13.23
2023-04-08T23:59:55.676Z,13.19
